sensor_id;sensor_type;location;lat;lon;timestamp;temperature;humidity
11497;DHT22;5805;51.542;7.230;2022-12-20T00:00:41;12.90;99.90
11497;DHT22;5805;51.542;7.230;2022-12-20T00:03:07;13.90;99.90
11497;DHT22;5805;51.542;7.230;2022-12-20T00:05:35;13.70;99.90
11497;DHT22;5805;51.542;7.230;2022-12-20T00:08:01;13.30;99.90
11497;DHT22;5805;51.542;7.230;2022-12-20T00:10:26;13.30;99.90
11497;DHT22;5805;51.542;7.230;2022-12-20T00:12:53;13.00;99.90
11497;DHT22;5805;51.542;7.230;2022-12-20T00:15:19;13.10;99.90
11497;DHT22;5805;51.542;7.230;2022-12-20T00:17:45;13.10;99.90
11497;DHT22;5805;51.542;7.230;2022-12-20T00:20:11;13.10;99.90
11497;DHT22;5805;51.542;7.230;2022-12-20T00:22:36;13.10;99.90
11497;DHT22;5805;51.542;7.230;2022-12-20T00:25:02;13.20;99.90
11497;DHT22;5805;51.542;7.230;2022-12-20T00:27:28;13.20;99.90
11497;DHT22;5805;51.542;7.230;2022-12-20T00:29:55;14.00;99.90
11497;DHT22;5805;51.542;7.230;2022-12-20T00:32:20;13.20;99.90
11497;DHT22;5805;51.542;7.230;2022-12-20T00:34:46;13.20;99.90
11497;DHT22;5805;51.542;7.230;2022-12-20T00:37:12;13.30;99.90
11497;DHT22;5805;51.542;7.230;2022-12-20T00:39:37;13.20;99.90
11497;DHT22;5805;51.542;7.230;2022-12-20T00:42:03;13.20;99.90
11497;DHT22;5805;51.542;7.230;2022-12-20T00:44:29;13.30;99.90
11497;DHT22;5805;51.542;7.230;2022-12-20T00:46:56;13.70;99.90
11497;DHT22;5805;51.542;7.230;2022-12-20T00:49:21;15.20;99.90
11497;DHT22;5805;51.542;7.230;2022-12-20T00:51:47;13.20;99.90
11497;DHT22;5805;51.542;7.230;2022-12-20T00:54:13;14.40;99.90
11497;DHT22;5805;51.542;7.230;2022-12-20T00:56:38;13.30;99.90
11497;DHT22;5805;51.542;7.230;2022-12-20T00:59:04;13.30;99.90
11497;DHT22;5805;51.542;7.230;2022-12-20T01:01:31;13.30;99.90
11497;DHT22;5805;51.542;7.230;2022-12-20T01:03:58;13.30;99.90
11497;DHT22;5805;51.542;7.230;2022-12-20T01:06:25;13.30;99.90
11497;DHT22;5805;51.542;7.230;2022-12-20T01:08:51;13.30;99.90
11497;DHT22;5805;51.542;7.230;2022-12-20T01:11:19;13.30;99.90
11497;DHT22;5805;51.542;7.230;2022-12-20T01:13:46;14.20;99.90
11497;DHT22;5805;51.542;7.230;2022-12-20T01:16:14;13.30;99.90
11497;DHT22;5805;51.542;7.230;2022-12-20T01:18:40;13.50;99.90
11497;DHT22;5805;51.542;7.230;2022-12-20T01:21:09;13.30;99.90
11497;DHT22;5805;51.542;7.230;2022-12-20T01:23:35;13.30;99.90
11497;DHT22;5805;51.542;7.230;2022-12-20T01:26:02;13.30;99.90
11497;DHT22;5805;51.542;7.230;2022-12-20T01:28:29;13.40;99.90
11497;DHT22;5805;51.542;7.230;2022-12-20T01:30:55;13.30;99.90
11497;DHT22;5805;51.542;7.230;2022-12-20T01:33:21;13.40;99.90
11497;DHT22;5805;51.542;7.230;2022-12-20T01:35:54;14.20;99.90
11497;DHT22;5805;51.542;7.230;2022-12-20T01:38:22;13.40;99.90
11497;DHT22;5805;51.542;7.230;2022-12-20T01:40:48;13.40;99.90
11497;DHT22;5805;51.542;7.230;2022-12-20T01:43:14;13.40;99.90
11497;DHT22;5805;51.542;7.230;2022-12-20T01:45:42;13.90;99.90
11497;DHT22;5805;51.542;7.230;2022-12-20T01:48:08;13.50;99.90
11497;DHT22;5805;51.542;7.230;2022-12-20T01:50:35;13.50;99.90
11497;DHT22;5805;51.542;7.230;2022-12-20T01:53:01;13.50;99.90
11497;DHT22;5805;51.542;7.230;2022-12-20T01:55:29;13.40;99.90
11497;DHT22;5805;51.542;7.230;2022-12-20T01:57:57;13.50;99.90
11497;DHT22;5805;51.542;7.230;2022-12-20T02:00:24;13.50;99.90
11497;DHT22;5805;51.542;7.230;2022-12-20T02:02:50;14.30;99.90
11497;DHT22;5805;51.542;7.230;2022-12-20T02:05:18;13.50;99.90
11497;DHT22;5805;51.542;7.230;2022-12-20T02:07:45;13.50;99.90
11497;DHT22;5805;51.542;7.230;2022-12-20T02:10:12;13.70;99.90
11497;DHT22;5805;51.542;7.230;2022-12-20T02:12:41;13.60;99.90
11497;DHT22;5805;51.542;7.230;2022-12-20T02:15:28;13.50;99.90
11497;DHT22;5805;51.542;7.230;2022-12-20T02:18:14;13.50;99.90
11497;DHT22;5805;51.542;7.230;2022-12-20T02:20:53;13.50;99.90
11497;DHT22;5805;51.542;7.230;2022-12-20T02:23:52;13.60;99.90
11497;DHT22;5805;51.542;7.230;2022-12-20T02:26:41;13.50;99.90
11497;DHT22;5805;51.542;7.230;2022-12-20T02:29:22;13.50;99.90
11497;DHT22;5805;51.542;7.230;2022-12-20T02:31:56;13.50;99.90
11497;DHT22;5805;51.542;7.230;2022-12-20T02:34:23;13.70;99.90
11497;DHT22;5805;51.542;7.230;2022-12-20T02:36:50;13.60;99.90
11497;DHT22;5805;51.542;7.230;2022-12-20T02:39:16;13.50;99.90
11497;DHT22;5805;51.542;7.230;2022-12-20T02:41:46;13.50;99.90
11497;DHT22;5805;51.542;7.230;2022-12-20T02:44:14;14.40;99.90
11497;DHT22;5805;51.542;7.230;2022-12-20T02:46:41;13.50;99.90
11497;DHT22;5805;51.542;7.230;2022-12-20T02:49:12;13.50;99.90
11497;DHT22;5805;51.542;7.230;2022-12-20T02:51:39;13.40;99.90
11497;DHT22;5805;51.542;7.230;2022-12-20T02:54:05;13.40;99.90
11497;DHT22;5805;51.542;7.230;2022-12-20T02:56:33;13.40;99.90
11497;DHT22;5805;51.542;7.230;2022-12-20T02:59:05;14.00;99.90
11497;DHT22;5805;51.542;7.230;2022-12-20T03:01:34;14.80;99.90
11497;DHT22;5805;51.542;7.230;2022-12-20T03:04:02;13.30;99.90
11497;DHT22;5805;51.542;7.230;2022-12-20T03:06:29;13.40;99.90
11497;DHT22;5805;51.542;7.230;2022-12-20T03:08:55;13.40;99.90
11497;DHT22;5805;51.542;7.230;2022-12-20T03:11:21;13.90;99.90
11497;DHT22;5805;51.542;7.230;2022-12-20T03:13:47;13.30;99.90
11497;DHT22;5805;51.542;7.230;2022-12-20T03:16:13;13.40;99.90
11497;DHT22;5805;51.542;7.230;2022-12-20T03:18:39;13.30;99.90
11497;DHT22;5805;51.542;7.230;2022-12-20T03:21:05;13.70;99.90
11497;DHT22;5805;51.542;7.230;2022-12-20T03:23:32;13.60;99.90
11497;DHT22;5805;51.542;7.230;2022-12-20T03:25:58;13.30;99.90
11497;DHT22;5805;51.542;7.230;2022-12-20T03:28:23;14.20;99.90
11497;DHT22;5805;51.542;7.230;2022-12-20T03:30:49;13.20;99.90
11497;DHT22;5805;51.542;7.230;2022-12-20T03:33:15;13.20;99.90
11497;DHT22;5805;51.542;7.230;2022-12-20T03:35:40;13.10;99.90
11497;DHT22;5805;51.542;7.230;2022-12-20T03:38:06;13.70;99.90
11497;DHT22;5805;51.542;7.230;2022-12-20T03:40:33;13.10;99.90
11497;DHT22;5805;51.542;7.230;2022-12-20T03:42:59;13.10;99.90
11497;DHT22;5805;51.542;7.230;2022-12-20T03:45:24;13.10;99.90
11497;DHT22;5805;51.542;7.230;2022-12-20T03:47:50;13.10;99.90
11497;DHT22;5805;51.542;7.230;2022-12-20T03:50:16;14.10;99.90
11497;DHT22;5805;51.542;7.230;2022-12-20T03:52:41;13.00;99.90
11497;DHT22;5805;51.542;7.230;2022-12-20T03:55:08;13.10;99.90
11497;DHT22;5805;51.542;7.230;2022-12-20T03:57:35;12.90;99.90
11497;DHT22;5805;51.542;7.230;2022-12-20T04:00:01;12.90;99.90
11497;DHT22;5805;51.542;7.230;2022-12-20T04:02:26;12.90;99.90
11497;DHT22;5805;51.542;7.230;2022-12-20T04:04:52;12.90;99.90
11497;DHT22;5805;51.542;7.230;2022-12-20T04:07:18;12.90;99.90
11497;DHT22;5805;51.542;7.230;2022-12-20T04:09:44;12.80;99.90
11497;DHT22;5805;51.542;7.230;2022-12-20T04:12:10;12.90;99.90
11497;DHT22;5805;51.542;7.230;2022-12-20T04:14:37;12.90;99.90
11497;DHT22;5805;51.542;7.230;2022-12-20T04:17:02;14.30;99.90
11497;DHT22;5805;51.542;7.230;2022-12-20T04:19:28;12.90;99.90
11497;DHT22;5805;51.542;7.230;2022-12-20T04:21:54;13.40;99.90
11497;DHT22;5805;51.542;7.230;2022-12-20T04:24:19;12.80;99.90
11497;DHT22;5805;51.542;7.230;2022-12-20T04:26:45;12.80;99.90
11497;DHT22;5805;51.542;7.230;2022-12-20T04:29:11;12.80;99.90
11497;DHT22;5805;51.542;7.230;2022-12-20T04:31:38;13.70;99.90
11497;DHT22;5805;51.542;7.230;2022-12-20T04:34:03;12.70;99.90
11497;DHT22;5805;51.542;7.230;2022-12-20T04:36:29;12.70;99.90
11497;DHT22;5805;51.542;7.230;2022-12-20T04:38:55;12.70;99.90
11497;DHT22;5805;51.542;7.230;2022-12-20T04:41:20;12.70;99.90
11497;DHT22;5805;51.542;7.230;2022-12-20T04:43:46;14.30;99.90
11497;DHT22;5805;51.542;7.230;2022-12-20T04:46:12;12.70;99.90
11497;DHT22;5805;51.542;7.230;2022-12-20T04:48:39;13.40;99.90
11497;DHT22;5805;51.542;7.230;2022-12-20T04:51:05;12.70;99.90
11497;DHT22;5805;51.542;7.230;2022-12-20T04:53:30;12.70;99.90
11497;DHT22;5805;51.542;7.230;2022-12-20T04:55:56;14.20;99.90
11497;DHT22;5805;51.542;7.230;2022-12-20T04:58:22;12.60;99.90
11497;DHT22;5805;51.542;7.230;2022-12-20T05:00:47;13.60;99.90
11497;DHT22;5805;51.542;7.230;2022-12-20T05:03:13;14.20;99.90
11497;DHT22;5805;51.542;7.230;2022-12-20T05:05:40;14.20;99.90
11497;DHT22;5805;51.542;7.230;2022-12-20T05:08:06;14.00;99.90
11497;DHT22;5805;51.542;7.230;2022-12-20T05:10:31;12.60;99.90
11497;DHT22;5805;51.542;7.230;2022-12-20T05:12:57;13.40;99.90
11497;DHT22;5805;51.542;7.230;2022-12-20T05:15:22;12.60;99.90
11497;DHT22;5805;51.542;7.230;2022-12-20T05:17:48;14.10;99.90
11497;DHT22;5805;51.542;7.230;2022-12-20T05:20:14;12.70;99.90
11497;DHT22;5805;51.542;7.230;2022-12-20T05:22:41;12.60;99.90
11497;DHT22;5805;51.542;7.230;2022-12-20T05:25:08;12.60;99.90
11497;DHT22;5805;51.542;7.230;2022-12-20T05:27:34;12.60;99.90
11497;DHT22;5805;51.542;7.230;2022-12-20T05:30:00;12.60;99.90
11497;DHT22;5805;51.542;7.230;2022-12-20T05:32:25;12.60;99.90
11497;DHT22;5805;51.542;7.230;2022-12-20T05:34:51;12.60;99.90
11497;DHT22;5805;51.542;7.230;2022-12-20T05:37:17;12.60;99.90
11497;DHT22;5805;51.542;7.230;2022-12-20T05:39:44;12.60;99.90
11497;DHT22;5805;51.542;7.230;2022-12-20T05:42:09;12.60;99.90
11497;DHT22;5805;51.542;7.230;2022-12-20T05:44:35;12.60;99.90
11497;DHT22;5805;51.542;7.230;2022-12-20T05:47:01;13.00;99.90
11497;DHT22;5805;51.542;7.230;2022-12-20T05:49:26;12.50;99.90
11497;DHT22;5805;51.542;7.230;2022-12-20T05:51:52;13.60;99.90
11497;DHT22;5805;51.542;7.230;2022-12-20T05:54:18;12.50;99.90
11497;DHT22;5805;51.542;7.230;2022-12-20T05:56:45;12.50;99.90
11497;DHT22;5805;51.542;7.230;2022-12-20T05:59:10;15.00;99.90
11497;DHT22;5805;51.542;7.230;2022-12-20T06:01:36;12.50;99.90
11497;DHT22;5805;51.542;7.230;2022-12-20T06:04:02;13.60;99.90
11497;DHT22;5805;51.542;7.230;2022-12-20T06:06:27;14.30;99.90
11497;DHT22;5805;51.542;7.230;2022-12-20T06:08:53;12.60;99.90
11497;DHT22;5805;51.542;7.230;2022-12-20T06:11:19;12.50;99.90
11497;DHT22;5805;51.542;7.230;2022-12-20T06:13:46;12.50;99.90
11497;DHT22;5805;51.542;7.230;2022-12-20T06:16:11;12.50;99.90
11497;DHT22;5805;51.542;7.230;2022-12-20T06:18:37;12.50;99.90
11497;DHT22;5805;51.542;7.230;2022-12-20T06:21:03;14.10;99.90
11497;DHT22;5805;51.542;7.230;2022-12-20T06:23:28;12.50;99.90
11497;DHT22;5805;51.542;7.230;2022-12-20T06:25:54;12.60;99.90
11497;DHT22;5805;51.542;7.230;2022-12-20T06:28:20;13.30;99.90
11497;DHT22;5805;51.542;7.230;2022-12-20T06:30:51;12.60;99.90
11497;DHT22;5805;51.542;7.230;2022-12-20T06:33:16;15.00;99.90
11497;DHT22;5805;51.542;7.230;2022-12-20T06:35:42;12.60;99.90
11497;DHT22;5805;51.542;7.230;2022-12-20T06:38:08;14.10;99.90
11497;DHT22;5805;51.542;7.230;2022-12-20T06:40:33;14.00;99.90
11497;DHT22;5805;51.542;7.230;2022-12-20T06:42:59;14.40;99.90
11497;DHT22;5805;51.542;7.230;2022-12-20T06:45:25;13.10;99.90
11497;DHT22;5805;51.542;7.230;2022-12-20T06:47:52;12.70;99.90
11497;DHT22;5805;51.542;7.230;2022-12-20T06:50:17;12.70;99.90
11497;DHT22;5805;51.542;7.230;2022-12-20T06:52:43;12.70;99.90
11497;DHT22;5805;51.542;7.230;2022-12-20T06:55:09;12.70;99.90
11497;DHT22;5805;51.542;7.230;2022-12-20T06:57:35;12.70;99.90
11497;DHT22;5805;51.542;7.230;2022-12-20T07:00:01;13.20;99.90
11497;DHT22;5805;51.542;7.230;2022-12-20T07:02:26;12.80;99.90
11497;DHT22;5805;51.542;7.230;2022-12-20T07:04:54;12.70;99.90
11497;DHT22;5805;51.542;7.230;2022-12-20T07:07:19;12.70;99.90
11497;DHT22;5805;51.542;7.230;2022-12-20T07:09:45;12.70;99.90
11497;DHT22;5805;51.542;7.230;2022-12-20T07:12:11;15.20;99.90
11497;DHT22;5805;51.542;7.230;2022-12-20T07:14:36;12.80;99.90
11497;DHT22;5805;51.542;7.230;2022-12-20T07:17:02;12.70;99.90
11497;DHT22;5805;51.542;7.230;2022-12-20T07:19:28;13.80;99.90
11497;DHT22;5805;51.542;7.230;2022-12-20T07:21:55;12.70;99.90
11497;DHT22;5805;51.542;7.230;2022-12-20T07:24:21;12.80;99.90
11497;DHT22;5805;51.542;7.230;2022-12-20T07:26:46;12.80;99.90
11497;DHT22;5805;51.542;7.230;2022-12-20T07:29:12;12.80;99.90
11497;DHT22;5805;51.542;7.230;2022-12-20T07:31:38;12.80;99.90
11497;DHT22;5805;51.542;7.230;2022-12-20T07:34:04;12.80;99.90
11497;DHT22;5805;51.542;7.230;2022-12-20T07:36:30;13.60;99.90
11497;DHT22;5805;51.542;7.230;2022-12-20T07:38:57;14.30;99.90
11497;DHT22;5805;51.542;7.230;2022-12-20T07:41:22;12.80;99.90
11497;DHT22;5805;51.542;7.230;2022-12-20T07:43:48;12.80;99.90
11497;DHT22;5805;51.542;7.230;2022-12-20T07:46:14;12.80;99.90
11497;DHT22;5805;51.542;7.230;2022-12-20T07:48:40;13.10;99.90
11497;DHT22;5805;51.542;7.230;2022-12-20T07:51:09;12.80;99.90
11497;DHT22;5805;51.542;7.230;2022-12-20T07:53:38;12.80;99.90
11497;DHT22;5805;51.542;7.230;2022-12-20T07:56:07;13.00;99.90
11497;DHT22;5805;51.542;7.230;2022-12-20T07:58:34;12.80;99.90
11497;DHT22;5805;51.542;7.230;2022-12-20T08:01:02;13.00;99.90
11497;DHT22;5805;51.542;7.230;2022-12-20T08:03:31;12.80;99.90
11497;DHT22;5805;51.542;7.230;2022-12-20T08:05:59;12.90;99.90
11497;DHT22;5805;51.542;7.230;2022-12-20T08:08:26;12.90;99.90
11497;DHT22;5805;51.542;7.230;2022-12-20T08:10:52;13.10;99.90
11497;DHT22;5805;51.542;7.230;2022-12-20T08:13:19;13.00;99.90
11497;DHT22;5805;51.542;7.230;2022-12-20T08:15:45;13.00;99.90
11497;DHT22;5805;51.542;7.230;2022-12-20T08:18:10;13.10;99.90
11497;DHT22;5805;51.542;7.230;2022-12-20T08:20:36;13.10;99.90
11497;DHT22;5805;51.542;7.230;2022-12-20T08:23:02;13.10;99.90
11497;DHT22;5805;51.542;7.230;2022-12-20T08:25:28;13.10;99.90
11497;DHT22;5805;51.542;7.230;2022-12-20T08:27:53;13.20;99.90
11497;DHT22;5805;51.542;7.230;2022-12-20T08:30:20;13.20;99.90
11497;DHT22;5805;51.542;7.230;2022-12-20T08:32:46;13.20;99.90
11497;DHT22;5805;51.542;7.230;2022-12-20T08:35:12;13.10;99.90
11497;DHT22;5805;51.542;7.230;2022-12-20T08:37:38;13.10;99.90
11497;DHT22;5805;51.542;7.230;2022-12-20T08:40:05;13.10;99.90
11497;DHT22;5805;51.542;7.230;2022-12-20T08:42:30;13.10;99.90
11497;DHT22;5805;51.542;7.230;2022-12-20T08:44:56;13.10;99.90
11497;DHT22;5805;51.542;7.230;2022-12-20T08:47:23;13.20;99.90
11497;DHT22;5805;51.542;7.230;2022-12-20T08:49:49;13.20;99.90
11497;DHT22;5805;51.542;7.230;2022-12-20T08:52:15;13.30;99.90
11497;DHT22;5805;51.542;7.230;2022-12-20T08:54:40;13.40;99.90
11497;DHT22;5805;51.542;7.230;2022-12-20T08:57:06;13.40;99.90
11497;DHT22;5805;51.542;7.230;2022-12-20T08:59:32;13.70;99.90
11497;DHT22;5805;51.542;7.230;2022-12-20T09:01:58;13.40;99.90
11497;DHT22;5805;51.542;7.230;2022-12-20T09:04:25;13.50;99.90
11497;DHT22;5805;51.542;7.230;2022-12-20T09:06:50;13.50;99.90
11497;DHT22;5805;51.542;7.230;2022-12-20T09:09:16;13.60;99.90
11497;DHT22;5805;51.542;7.230;2022-12-20T09:11:42;13.60;99.90
11497;DHT22;5805;51.542;7.230;2022-12-20T09:14:08;13.70;99.90
11497;DHT22;5805;51.542;7.230;2022-12-20T09:16:33;13.70;99.90
11497;DHT22;5805;51.542;7.230;2022-12-20T09:19:00;13.80;99.90
11497;DHT22;5805;51.542;7.230;2022-12-20T09:21:28;13.80;99.90
11497;DHT22;5805;51.542;7.230;2022-12-20T09:23:54;13.80;99.90
11497;DHT22;5805;51.542;7.230;2022-12-20T09:26:21;13.90;99.90
11497;DHT22;5805;51.542;7.230;2022-12-20T09:28:47;13.90;99.90
11497;DHT22;5805;51.542;7.230;2022-12-20T09:31:15;13.90;99.90
11497;DHT22;5805;51.542;7.230;2022-12-20T09:33:42;13.90;99.90
11497;DHT22;5805;51.542;7.230;2022-12-20T09:36:10;14.00;99.90
11497;DHT22;5805;51.542;7.230;2022-12-20T09:38:37;14.00;99.90
11497;DHT22;5805;51.542;7.230;2022-12-20T09:41:05;14.10;99.90
11497;DHT22;5805;51.542;7.230;2022-12-20T09:43:32;14.00;99.90
11497;DHT22;5805;51.542;7.230;2022-12-20T09:46:00;14.00;99.90
11497;DHT22;5805;51.542;7.230;2022-12-20T09:48:29;14.10;99.90
11497;DHT22;5805;51.542;7.230;2022-12-20T09:51:06;14.00;99.90
11497;DHT22;5805;51.542;7.230;2022-12-20T09:53:40;14.10;99.90
11497;DHT22;5805;51.542;7.230;2022-12-20T09:56:12;14.10;99.90
11497;DHT22;5805;51.542;7.230;2022-12-20T09:58:52;14.00;99.90
11497;DHT22;5805;51.542;7.230;2022-12-20T10:01:23;14.10;99.90
11497;DHT22;5805;51.542;7.230;2022-12-20T10:03:49;14.10;99.90
11497;DHT22;5805;51.542;7.230;2022-12-20T10:06:19;14.10;99.90
11497;DHT22;5805;51.542;7.230;2022-12-20T10:08:53;14.10;99.90
11497;DHT22;5805;51.542;7.230;2022-12-20T10:11:35;14.20;99.90
11497;DHT22;5805;51.542;7.230;2022-12-20T10:14:07;14.20;99.90
11497;DHT22;5805;51.542;7.230;2022-12-20T10:16:41;14.20;99.90
11497;DHT22;5805;51.542;7.230;2022-12-20T10:19:22;14.20;99.90
11497;DHT22;5805;51.542;7.230;2022-12-20T10:21:54;14.30;99.90
11497;DHT22;5805;51.542;7.230;2022-12-20T10:24:28;14.20;99.90
11497;DHT22;5805;51.542;7.230;2022-12-20T10:26:55;14.20;99.90
11497;DHT22;5805;51.542;7.230;2022-12-20T10:29:21;14.30;99.90
11497;DHT22;5805;51.542;7.230;2022-12-20T10:31:48;14.20;99.90
11497;DHT22;5805;51.542;7.230;2022-12-20T10:34:15;14.40;99.90
11497;DHT22;5805;51.542;7.230;2022-12-20T10:36:41;14.20;99.90
11497;DHT22;5805;51.542;7.230;2022-12-20T10:39:08;14.20;99.90
11497;DHT22;5805;51.542;7.230;2022-12-20T10:41:48;14.30;99.90
11497;DHT22;5805;51.542;7.230;2022-12-20T10:44:18;14.40;99.90
11497;DHT22;5805;51.542;7.230;2022-12-20T10:46:46;14.30;99.90
11497;DHT22;5805;51.542;7.230;2022-12-20T10:49:24;14.30;99.90
11497;DHT22;5805;51.542;7.230;2022-12-20T10:51:52;14.40;99.90
11497;DHT22;5805;51.542;7.230;2022-12-20T10:54:22;14.40;99.90
11497;DHT22;5805;51.542;7.230;2022-12-20T10:56:55;14.40;99.90
11497;DHT22;5805;51.542;7.230;2022-12-20T10:59:28;14.40;99.90
11497;DHT22;5805;51.542;7.230;2022-12-20T11:01:54;14.50;99.90
11497;DHT22;5805;51.542;7.230;2022-12-20T11:04:25;14.50;99.90
11497;DHT22;5805;51.542;7.230;2022-12-20T11:06:51;14.80;99.90
11497;DHT22;5805;51.542;7.230;2022-12-20T11:09:27;14.70;99.90
11497;DHT22;5805;51.542;7.230;2022-12-20T11:12:05;14.80;99.90
11497;DHT22;5805;51.542;7.230;2022-12-20T11:14:33;14.80;99.90
11497;DHT22;5805;51.542;7.230;2022-12-20T11:17:03;14.70;99.90
11497;DHT22;5805;51.542;7.230;2022-12-20T11:19:46;14.70;99.90
11497;DHT22;5805;51.542;7.230;2022-12-20T11:22:24;14.70;99.90
11497;DHT22;5805;51.542;7.230;2022-12-20T11:25:02;14.70;99.90
11497;DHT22;5805;51.542;7.230;2022-12-20T11:27:40;14.70;99.90
11497;DHT22;5805;51.542;7.230;2022-12-20T11:30:15;14.70;99.90
11497;DHT22;5805;51.542;7.230;2022-12-20T11:32:56;14.80;99.90
11497;DHT22;5805;51.542;7.230;2022-12-20T11:35:25;14.80;99.90
11497;DHT22;5805;51.542;7.230;2022-12-20T11:37:57;14.80;99.90
11497;DHT22;5805;51.542;7.230;2022-12-20T11:40:30;14.80;99.90
11497;DHT22;5805;51.542;7.230;2022-12-20T11:43:16;14.80;99.90
11497;DHT22;5805;51.542;7.230;2022-12-20T11:45:54;14.80;99.90
11497;DHT22;5805;51.542;7.230;2022-12-20T11:51:22;14.60;99.90
11497;DHT22;5805;51.542;7.230;2022-12-20T11:53:55;14.60;99.90
11497;DHT22;5805;51.542;7.230;2022-12-20T11:56:25;14.60;99.90
11497;DHT22;5805;51.542;7.230;2022-12-20T11:58:56;14.60;99.90
11497;DHT22;5805;51.542;7.230;2022-12-20T12:01:30;14.60;99.90
11497;DHT22;5805;51.542;7.230;2022-12-20T12:04:09;14.60;99.90
11497;DHT22;5805;51.542;7.230;2022-12-20T12:06:39;14.60;99.90
11497;DHT22;5805;51.542;7.230;2022-12-20T12:09:14;14.60;99.90
11497;DHT22;5805;51.542;7.230;2022-12-20T12:11:44;14.60;99.90
11497;DHT22;5805;51.542;7.230;2022-12-20T12:14:26;14.70;99.90
11497;DHT22;5805;51.542;7.230;2022-12-20T12:16:56;14.70;99.90
11497;DHT22;5805;51.542;7.230;2022-12-20T12:19:27;14.70;99.90
11497;DHT22;5805;51.542;7.230;2022-12-20T12:21:58;14.70;99.90
11497;DHT22;5805;51.542;7.230;2022-12-20T12:24:30;14.70;99.90
11497;DHT22;5805;51.542;7.230;2022-12-20T12:26:58;14.70;99.90
11497;DHT22;5805;51.542;7.230;2022-12-20T12:29:28;14.70;99.90
11497;DHT22;5805;51.542;7.230;2022-12-20T12:31:57;14.70;99.90
11497;DHT22;5805;51.542;7.230;2022-12-20T12:34:33;14.70;99.90
11497;DHT22;5805;51.542;7.230;2022-12-20T12:37:26;14.80;99.90
11497;DHT22;5805;51.542;7.230;2022-12-20T12:40:14;14.70;99.90
11497;DHT22;5805;51.542;7.230;2022-12-20T12:45:42;14.70;99.90
11497;DHT22;5805;51.542;7.230;2022-12-20T12:48:15;14.70;99.90
11497;DHT22;5805;51.542;7.230;2022-12-20T12:50:45;14.70;99.90
11497;DHT22;5805;51.542;7.230;2022-12-20T12:53:14;14.80;99.90
11497;DHT22;5805;51.542;7.230;2022-12-20T12:55:43;14.80;99.90
11497;DHT22;5805;51.542;7.230;2022-12-20T13:01:07;14.90;99.90
11497;DHT22;5805;51.542;7.230;2022-12-20T13:03:47;14.90;99.90
11497;DHT22;5805;51.542;7.230;2022-12-20T13:06:59;14.90;99.90
11497;DHT22;5805;51.542;7.230;2022-12-20T13:09:39;14.90;99.90
11497;DHT22;5805;51.542;7.230;2022-12-20T13:15:51;15.00;99.90
11497;DHT22;5805;51.542;7.230;2022-12-20T13:18:25;14.90;99.90
11497;DHT22;5805;51.542;7.230;2022-12-20T13:21:17;14.90;99.90
11497;DHT22;5805;51.542;7.230;2022-12-20T13:23:43;14.80;99.90
11497;DHT22;5805;51.542;7.230;2022-12-20T13:26:47;14.70;99.90
11497;DHT22;5805;51.542;7.230;2022-12-20T13:29:25;14.70;99.90
11497;DHT22;5805;51.542;7.230;2022-12-20T13:31:51;14.60;99.90
11497;DHT22;5805;51.542;7.230;2022-12-20T13:34:42;14.50;99.90
11497;DHT22;5805;51.542;7.230;2022-12-20T13:37:28;14.40;99.90
11497;DHT22;5805;51.542;7.230;2022-12-20T13:39:54;14.40;99.90
11497;DHT22;5805;51.542;7.230;2022-12-20T13:42:29;14.20;99.90
11497;DHT22;5805;51.542;7.230;2022-12-20T13:45:01;14.20;99.90
11497;DHT22;5805;51.542;7.230;2022-12-20T13:47:46;14.10;99.90
11497;DHT22;5805;51.542;7.230;2022-12-20T13:50:32;14.10;99.90
11497;DHT22;5805;51.542;7.230;2022-12-20T13:53:00;14.00;99.90
11497;DHT22;5805;51.542;7.230;2022-12-20T13:55:32;14.00;99.90
11497;DHT22;5805;51.542;7.230;2022-12-20T13:58:03;14.00;99.90
11497;DHT22;5805;51.542;7.230;2022-12-20T14:00:30;14.00;99.90
11497;DHT22;5805;51.542;7.230;2022-12-20T14:02:56;13.90;99.90
11497;DHT22;5805;51.542;7.230;2022-12-20T14:05:23;14.00;99.90
11497;DHT22;5805;51.542;7.230;2022-12-20T14:07:55;14.00;99.90
11497;DHT22;5805;51.542;7.230;2022-12-20T14:10:25;13.90;99.90
11497;DHT22;5805;51.542;7.230;2022-12-20T14:12:51;13.90;99.90
11497;DHT22;5805;51.542;7.230;2022-12-20T14:15:25;13.80;99.90
11497;DHT22;5805;51.542;7.230;2022-12-20T14:17:51;13.70;99.90
11497;DHT22;5805;51.542;7.230;2022-12-20T14:20:22;13.70;99.90
11497;DHT22;5805;51.542;7.230;2022-12-20T14:22:52;13.70;99.90
11497;DHT22;5805;51.542;7.230;2022-12-20T14:25:36;13.60;99.90
11497;DHT22;5805;51.542;7.230;2022-12-20T14:28:03;13.60;99.90
11497;DHT22;5805;51.542;7.230;2022-12-20T14:30:32;13.60;99.90
11497;DHT22;5805;51.542;7.230;2022-12-20T14:32:59;13.60;99.90
11497;DHT22;5805;51.542;7.230;2022-12-20T14:35:26;13.60;99.90
11497;DHT22;5805;51.542;7.230;2022-12-20T14:37:55;13.60;99.90
11497;DHT22;5805;51.542;7.230;2022-12-20T14:40:21;13.50;99.90
11497;DHT22;5805;51.542;7.230;2022-12-20T14:42:48;13.60;99.90
11497;DHT22;5805;51.542;7.230;2022-12-20T14:45:23;13.40;99.90
11497;DHT22;5805;51.542;7.230;2022-12-20T14:47:53;13.40;99.90
11497;DHT22;5805;51.542;7.230;2022-12-20T14:50:22;13.50;99.90
11497;DHT22;5805;51.542;7.230;2022-12-20T14:52:49;13.80;99.90
11497;DHT22;5805;51.542;7.230;2022-12-20T14:55:18;13.50;99.90
11497;DHT22;5805;51.542;7.230;2022-12-20T14:57:46;13.50;99.90
11497;DHT22;5805;51.542;7.230;2022-12-20T15:00:19;13.50;99.90
11497;DHT22;5805;51.542;7.230;2022-12-20T15:02:50;13.40;99.90
11497;DHT22;5805;51.542;7.230;2022-12-20T15:05:46;13.50;99.90
11497;DHT22;5805;51.542;7.230;2022-12-20T15:08:14;13.40;99.90
11497;DHT22;5805;51.542;7.230;2022-12-20T15:10:45;13.40;99.90
11497;DHT22;5805;51.542;7.230;2022-12-20T15:13:12;13.40;99.90
11497;DHT22;5805;51.542;7.230;2022-12-20T15:15:39;13.80;99.90
11497;DHT22;5805;51.542;7.230;2022-12-20T15:18:11;13.50;99.90
11497;DHT22;5805;51.542;7.230;2022-12-20T15:20:38;13.40;99.90
11497;DHT22;5805;51.542;7.230;2022-12-20T15:23:04;13.40;99.90
11497;DHT22;5805;51.542;7.230;2022-12-20T15:25:31;13.50;99.90
11497;DHT22;5805;51.542;7.230;2022-12-20T15:27:59;13.50;99.90
11497;DHT22;5805;51.542;7.230;2022-12-20T15:30:25;13.50;99.90
11497;DHT22;5805;51.542;7.230;2022-12-20T15:32:51;13.50;99.90
11497;DHT22;5805;51.542;7.230;2022-12-20T15:35:16;13.60;99.90
11497;DHT22;5805;51.542;7.230;2022-12-20T15:37:42;13.50;99.90
11497;DHT22;5805;51.542;7.230;2022-12-20T15:40:12;13.40;99.90
11497;DHT22;5805;51.542;7.230;2022-12-20T15:42:39;13.40;99.90
11497;DHT22;5805;51.542;7.230;2022-12-20T15:45:11;13.80;99.90
11497;DHT22;5805;51.542;7.230;2022-12-20T15:47:37;13.40;99.90
11497;DHT22;5805;51.542;7.230;2022-12-20T15:50:04;13.40;99.90
11497;DHT22;5805;51.542;7.230;2022-12-20T15:52:30;13.40;99.90
11497;DHT22;5805;51.542;7.230;2022-12-20T15:54:56;13.40;99.90
11497;DHT22;5805;51.542;7.230;2022-12-20T15:57:22;13.40;99.90
11497;DHT22;5805;51.542;7.230;2022-12-20T15:59:47;13.40;99.90
11497;DHT22;5805;51.542;7.230;2022-12-20T16:02:20;13.40;99.90
11497;DHT22;5805;51.542;7.230;2022-12-20T16:04:46;13.60;99.90
11497;DHT22;5805;51.542;7.230;2022-12-20T16:07:12;13.40;99.90